Time;durP1;ratioP1;P1;durP2;ratioP2;P2;SDS_P1;SDS_P2;PMS_P1;PMS_P2;Temp;Humidity;BMP_temperature;BMP_pressure;BME280_temperature;BME280_humidity;BME280_pressure;Samples;Min_cycle;Max_cycle;Signal;HPM_P1;HPM_P2
2021/11/25 00:01:01;;;;;;;16.60;9.53;;;;;;;1.75;97.02;101498.69;5089266;28;20394;-75
2021/11/25 00:03:27;;;;;;;17.37;9.73;;;;;;;1.76;97.02;101475.03;5086259;28;20118;-76
2021/11/25 00:05:52;;;;;;;19.80;8.77;;;;;;;1.86;97.01;101504.75;5085239;28;20016;-75
2021/11/25 00:08:18;;;;;;;18.80;8.73;;;;;;;1.54;96.75;101425.53;5076494;28;20028;-76
2021/11/25 00:10:44;;;;;;;22.23;8.70;;;;;;;2.01;96.88;101505.22;5080222;28;20122;-75
2021/11/25 00:13:11;;;;;;;15.53;8.50;;;;;;;1.86;96.12;101455.50;5049201;28;20041;-76
2021/11/25 00:15:37;;;;;;;15.93;8.47;;;;;;;1.92;95.95;101484.94;5049452;28;20037;-76
2021/11/25 00:18:03;;;;;;;17.47;8.37;;;;;;;1.82;95.96;101478.88;5032605;28;20137;-78
2021/11/25 00:20:28;;;;;;;18.97;8.80;;;;;;;1.82;96.38;101496.69;5032436;28;20039;-76
2021/11/25 00:22:54;;;;;;;19.73;9.93;;;;;;;1.97;95.92;101510.81;5049101;28;20106;-77
2021/11/25 00:25:20;;;;;;;18.47;9.03;;;;;;;2.06;95.50;101514.16;5049283;28;20029;-77
2021/11/25 00:27:45;;;;;;;22.70;9.50;;;;;;;1.60;94.58;101418.44;5032248;28;20522;-77
2021/11/25 00:30:11;;;;;;;18.30;8.77;;;;;;;2.15;94.15;101493.69;5049124;28;20044;-76
2021/11/25 00:32:38;;;;;;;23.53;11.57;;;;;;;2.24;93.47;101502.16;5032447;28;20037;-77
2021/11/25 00:35:05;;;;;;;33.57;17.60;;;;;;;2.16;93.36;101474.22;5049066;28;20094;-76
2021/11/25 00:37:30;;;;;;;29.30;17.63;;;;;;;1.83;93.10;101411.94;5032217;28;20124;-77
2021/11/25 00:39:56;;;;;;;28.60;15.93;;;;;;;2.39;92.63;101497.47;5032291;28;20124;-77
2021/11/25 00:42:22;;;;;;;30.17;16.40;;;;;;;2.41;92.04;101506.13;5048686;28;20041;-75
2021/11/25 00:44:48;;;;;;;21.93;13.40;;;;;;;2.08;92.10;101443.88;5081808;28;20063;-78
2021/11/25 00:47:13;;;;;;;25.53;12.87;;;;;;;2.53;91.90;101510.50;5091096;28;20024;-75
2021/11/25 00:49:39;;;;;;;20.13;10.97;;;;;;;1.84;93.32;101497.75;5090483;28;20112;-81
2021/11/25 00:52:05;;;;;;;18.93;10.73;;;;;;;1.32;95.56;101458.34;5072331;28;20024;-80
2021/11/25 00:54:31;;;;;;;18.47;9.63;;;;;;;1.76;95.96;101515.78;5090352;28;20036;-80
2021/11/25 00:56:56;;;;;;;20.77;9.57;;;;;;;1.67;95.53;101476.78;5089955;28;20035;-78
2021/11/25 00:59:21;;;;;;;14.17;8.80;;;;;;;1.64;95.05;101461.22;5081762;28;20466;-84
2021/11/25 01:01:47;;;;;;;17.70;10.33;;;;;;;1.75;94.89;101483.44;5070065;28;20059;-75
2021/11/25 01:04:12;;;;;;;19.10;9.43;;;;;;;1.62;94.75;101450.03;5071060;28;20158;-79
2021/11/25 01:06:38;;;;;;;18.83;9.33;;;;;;;1.46;94.75;101422.31;5085415;28;20028;-78
2021/11/25 01:09:05;;;;;;;16.83;8.70;;;;;;;1.87;95.42;101500.53;5087620;28;20091;-75
2021/11/25 01:11:31;;;;;;;15.60;9.43;;;;;;;1.77;95.40;101474.28;5067876;28;20035;-76
2021/11/25 01:13:57;;;;;;;14.23;9.27;;;;;;;1.97;95.07;101495.53;5076433;28;20024;-77
2021/11/25 01:16:22;;;;;;;13.97;8.80;;;;;;;1.96;95.15;101492.81;5084861;28;20052;-76
2021/11/25 01:18:49;;;;;;;13.93;9.90;;;;;;;1.98;95.42;101493.84;5090604;28;20020;-81
2021/11/25 01:21:15;;;;;;;15.23;8.73;;;;;;;1.95;95.09;101479.22;5077218;28;20099;-75
2021/11/25 01:23:41;;;;;;;13.70;8.03;;;;;;;1.96;95.57;101492.81;5052091;28;20105;-74
2021/11/25 01:26:07;;;;;;;16.33;10.07;;;;;;;2.20;94.84;101494.97;5052149;28;20111;-73
2021/11/25 01:28:32;;;;;;;18.03;9.30;;;;;;;2.31;94.77;101483.16;5070056;28;20538;-74
2021/11/25 01:31:00;;;;;;;14.73;8.77;;;;;;;2.36;94.51;101492.09;5052248;28;20035;-72
2021/11/25 01:33:27;;;;;;;17.10;8.97;;;;;;;2.38;94.49;101490.59;5053255;28;20471;-75
2021/11/25 01:35:54;;;;;;;13.10;8.70;;;;;;;2.33;94.11;101478.19;5070297;28;20024;-74
2021/11/25 01:38:20;;;;;;;14.67;8.90;;;;;;;2.44;94.00;101482.56;5070011;28;20017;-74
2021/11/25 01:40:47;;;;;;;13.20;8.37;;;;;;;2.41;94.65;101479.75;5070227;28;20469;-74
2021/11/25 01:43:14;;;;;;;14.53;9.40;;;;;;;2.46;94.66;101481.06;5070326;28;20063;-73
2021/11/25 01:45:41;;;;;;;15.67;8.60;;;;;;;1.90;94.65;101378.59;5070266;28;20517;-75
2021/11/25 01:48:07;;;;;;;12.27;8.43;;;;;;;2.28;95.10;101457.44;5069861;28;20074;-72
2021/11/25 01:50:34;;;;;;;19.47;9.10;;;;;;;2.48;95.00;101478.63;5069974;28;20021;-72
2021/11/25 01:53:00;;;;;;;13.73;8.60;;;;;;;1.34;95.34;101282.19;5071747;28;20032;-75
2021/11/25 01:55:27;;;;;;;13.83;8.80;;;;;;;1.90;95.96;101391.34;5052353;28;20029;-73
2021/11/25 01:57:54;;;;;;;14.73;9.10;;;;;;;2.36;96.11;101470.84;5069791;28;20409;-74
2021/11/25 02:00:27;;;;;;;13.03;9.03;;;;;;;2.00;95.39;101391.34;5050754;28;20051;-81
2021/11/25 02:02:54;;;;;;;13.30;8.67;;;;;;;2.43;94.99;101458.75;5051794;28;20020;-77
2021/11/25 02:05:20;;;;;;;14.20;8.93;;;;;;;2.32;94.87;101446.75;5051911;28;20025;-80
2021/11/25 02:07:46;;;;;;;15.30;9.67;;;;;;;2.51;94.78;101468.72;5087931;28;20367;-77
2021/11/25 02:10:13;;;;;;;14.43;8.53;;;;;;;2.45;94.63;101460.53;5089040;28;20446;-72
2021/11/25 02:12:39;;;;;;;13.17;8.23;;;;;;;2.51;94.39;101456.84;5074956;28;20520;-76
2021/11/25 02:15:06;;;;;;;14.00;8.77;;;;;;;2.41;95.17;101465.34;5073285;28;20025;-74
2021/11/25 02:17:33;;;;;;;12.90;8.43;;;;;;;2.19;95.68;101446.44;5072305;28;20036;-75
2021/11/25 02:19:59;;;;;;;12.13;8.50;;;;;;;2.37;95.14;101470.97;5073429;28;20021;-74
2021/11/25 02:22:24;;;;;;;13.10;8.17;;;;;;;2.31;95.37;101460.25;5054980;28;20095;-75
2021/11/25 02:24:50;;;;;;;14.77;8.77;;;;;;;1.75;95.47;101373.06;5073340;28;20032;-77
2021/11/25 02:27:20;;;;;;;13.00;8.07;;;;;;;2.27;95.93;101465.84;5073220;28;20032;-76
2021/11/25 02:29:45;;;;;;;;;;;;;;;2.28;95.60;101464.19;5055147;28;20551;-75
2021/11/25 02:32:11;;;;;;;11.53;8.03;;;;;;;2.38;95.71;101459.09;5072914;28;19912;-77
2021/11/25 02:34:36;;;;;;;14.20;8.47;;;;;;;2.26;95.03;101421.63;5072731;28;20032;-77
2021/11/25 02:37:02;;;;;;;13.03;8.13;;;;;;;2.49;95.18;101432.88;5072925;28;20467;-75
2021/11/25 02:39:28;;;;;;;13.47;9.50;;;;;;;2.74;94.01;101445.13;5072538;28;20029;-76
2021/11/25 02:41:53;;;;;;;12.10;9.03;;;;;;;2.84;93.08;101442.63;5072327;28;20478;-80
2021/11/25 02:44:18;;;;;;;13.73;8.97;;;;;;;2.90;92.20;101443.13;5074233;28;20126;-75
2021/11/25 02:46:49;;;;;;;12.10;8.83;;;;;;;2.77;92.77;101432.66;5072560;28;20103;-77
2021/11/25 02:49:15;;;;;;;12.90;8.33;;;;;;;2.67;92.67;101420.81;5072679;28;20027;-74
2021/11/25 02:51:40;;;;;;;12.73;9.23;;;;;;;2.85;93.02;101438.41;5072902;28;20025;-74
2021/11/25 02:54:06;;;;;;;16.80;8.60;;;;;;;3.02;92.34;101450.91;5072359;28;20041;-75
2021/11/25 02:56:31;;;;;;;12.80;8.02;;;;;;;3.07;91.62;101441.09;5072417;28;20398;-76
2021/11/25 02:58:59;;;;;;;15.33;9.03;;;;;;;3.07;91.41;101441.97;5072210;28;20472;-75
2021/11/25 03:01:27;;;;;;;15.87;7.73;;;;;;;3.16;91.06;101441.81;5071926;28;20536;-76
2021/11/25 03:03:53;;;;;;;21.27;9.20;;;;;;;2.88;90.58;101401.28;5072436;28;20021;-77
2021/11/25 03:06:19;;;;;;;14.98;8.50;;;;;;;2.39;90.93;101324.19;5054701;28;20111;-74
2021/11/25 03:08:45;;;;;;;15.23;8.48;;;;;;;2.67;90.93;101371.47;5088050;28;20020;-75
2021/11/25 03:11:13;;;;;;;12.93;7.97;;;;;;;2.67;90.72;101408.06;5071825;28;20021;-75
2021/11/25 03:13:41;;;;;;;15.50;7.90;;;;;;;2.57;90.29;101410.59;5073175;28;20721;-76
2021/11/25 03:16:10;;;;;;;13.83;8.70;;;;;;;2.35;88.78;101377.31;5072265;28;20087;-76
2021/11/25 03:18:36;;;;;;;14.03;8.37;;;;;;;2.48;87.70;101409.81;5089720;28;20047;-76
2021/11/25 03:21:02;;;;;;;16.47;9.27;;;;;;;2.41;86.53;101408.41;5092128;28;20103;-75
2021/11/25 03:23:30;;;;;;;14.23;8.33;;;;;;;1.85;86.34;101355.28;5092135;28;20032;-74
2021/11/25 03:25:57;;;;;;;17.07;8.23;;;;;;;1.99;86.68;101432.88;5073830;28;20511;-72
2021/11/25 03:28:22;;;;;;;15.80;7.93;;;;;;;1.44;87.59;101418.72;5091494;28;20492;-73
2021/11/25 03:30:55;;;;;;;16.43;8.70;;;;;;;0.99;88.99;101407.13;5092572;28;20055;-74
2021/11/25 03:33:32;;;;;;;18.67;8.83;;;;;;;1.04;89.78;101435.53;5092688;28;20039;-78
2021/11/25 03:36:00;;;;;;;15.10;8.87;;;;;;;0.84;91.10;101442.22;5074367;28;20114;-73
2021/11/25 03:38:26;;;;;;;14.27;8.80;;;;;;;0.69;91.73;101430.66;5092307;28;20035;-74
2021/11/25 03:40:52;;;;;;;15.73;8.93;;;;;;;0.86;91.85;101437.25;5092680;28;20403;-73
2021/11/25 03:43:18;;;;;;;16.60;9.00;;;;;;;0.95;91.82;101443.22;5092478;28;20051;-74
2021/11/25 03:45:44;;;;;;;14.60;8.87;;;;;;;1.13;91.57;101442.34;5092327;28;20413;-74
2021/11/25 03:48:09;;;;;;;16.80;9.40;;;;;;;1.27;91.02;101430.84;5092462;28;20570;-74
2021/11/25 03:50:35;;;;;;;17.27;9.37;;;;;;;1.25;90.86;101431.47;5092299;28;20028;-73
2021/11/25 03:53:01;;;;;;;16.33;10.00;;;;;;;1.38;91.16;101434.34;5074071;28;20050;-74
2021/11/25 03:55:27;;;;;;;16.67;9.27;;;;;;;1.47;90.74;101434.28;5092151;28;20039;-72
2021/11/25 03:57:53;;;;;;;18.70;9.80;;;;;;;1.44;90.71;101434.00;5092331;28;20028;-73
2021/11/25 04:00:20;;;;;;;15.20;8.63;;;;;;;1.25;91.13;101442.53;5092080;28;20027;-73
2021/11/25 04:02:48;;;;;;;15.43;8.50;;;;;;;1.10;91.68;101442.03;5092051;28;20032;-74
2021/11/25 04:05:15;;;;;;;19.53;9.60;;;;;;;0.89;92.28;101448.59;5040562;28;20032;-74
2021/11/25 04:07:41;;;;;;;19.73;10.60;;;;;;;0.23;95.03;101450.13;5073868;28;20028;-73
2021/11/25 04:10:08;;;;;;;17.23;8.93;;;;;;;0.40;94.98;101434.81;5092229;28;20478;-73
2021/11/25 04:12:34;;;;;;;18.07;9.90;;;;;;;0.69;94.02;101440.81;5092216;28;20036;-74
2021/11/25 04:15:00;;;;;;;15.47;9.00;;;;;;;0.68;93.49;101437.38;5092109;28;20085;-74
2021/11/25 04:17:25;;;;;;;15.93;9.50;;;;;;;0.12;93.46;101328.09;5091957;28;20035;-74
2021/11/25 04:19:52;;;;;;;16.63;8.70;;;;;;;0.90;92.93;101427.53;5091683;28;20077;-74
2021/11/25 04:22:21;;;;;;;14.43;9.13;;;;;;;0.36;92.11;101310.78;5091825;28;20535;-74
2021/11/25 04:24:55;;;;;;;18.65;9.63;;;;;;;1.19;91.42;101425.84;5091795;28;20512;-74
2021/11/25 04:27:21;;;;;;;13.43;8.40;;;;;;;1.13;90.65;101422.00;5091765;28;20027;-74
2021/11/25 04:35:33;;;;;;;14.07;8.80;;;;;;;0.85;90.05;101407.50;5049513;28;20089;-74
2021/11/25 04:37:58;;;;;;;13.73;9.07;;;;;;;0.87;90.81;101426.34;5048744;28;20061;-74
2021/11/25 04:40:24;;;;;;;14.70;9.43;;;;;;;0.82;90.42;101392.88;5048668;28;20075;-74
2021/11/25 04:42:49;;;;;;;14.07;8.57;;;;;;;0.83;90.06;101401.41;5048916;28;20068;-72
2021/11/25 04:45:15;;;;;;;16.27;9.30;;;;;;;1.06;89.40;101416.19;5049136;28;20036;-73
2021/11/25 04:47:41;;;;;;;17.20;8.13;;;;;;;1.01;89.30;101415.78;5048966;28;20029;-73
2021/11/25 04:50:07;;;;;;;16.67;9.67;;;;;;;0.95;89.69;101427.94;5048967;28;20037;-73
2021/11/25 04:52:32;;;;;;;14.90;9.03;;;;;;;0.60;89.43;101379.88;5049014;28;20064;-74
2021/11/25 04:54:58;;;;;;;16.43;9.67;;;;;;;0.84;89.48;101393.91;5048898;28;20056;-73
2021/11/25 04:57:24;;;;;;;17.67;9.13;;;;;;;0.94;89.49;101409.25;5048826;28;20037;-73
2021/11/25 04:59:49;;;;;;;17.03;10.50;;;;;;;0.31;88.87;101307.84;5048973;28;20596;-72
2021/11/25 05:02:14;;;;;;;14.53;9.57;;;;;;;0.63;89.04;101396.28;5048665;28;20041;-73
2021/11/25 05:04:40;;;;;;;16.37;9.67;;;;;;;0.86;89.07;101419.47;4982907;28;20504;-72
2021/11/25 05:07:05;;;;;;;15.47;9.40;;;;;;;0.88;88.98;101417.97;5048959;28;20033;-73
2021/11/25 05:09:31;;;;;;;15.97;8.93;;;;;;;0.75;89.02;101404.13;5071613;28;20036;-73
2021/11/25 05:11:56;;;;;;;16.97;8.67;;;;;;;0.94;89.15;101427.03;5091211;28;20024;-73
2021/11/25 05:14:22;;;;;;;20.97;9.37;;;;;;;0.97;88.62;101426.41;5091425;28;20099;-73
2021/11/25 05:16:47;;;;;;;17.80;9.87;;;;;;;0.96;88.39;101419.56;5091183;28;20394;-73
2021/11/25 05:19:16;;;;;;;16.43;8.67;;;;;;;0.74;88.29;101374.38;5091369;28;20024;-73
2021/11/25 05:21:42;;;;;;;16.45;10.27;;;;;;;0.42;88.46;101329.13;5091217;28;20029;-73
2021/11/25 05:24:07;;;;;;;24.47;11.77;;;;;;;0.93;88.04;101404.91;5088218;28;20047;-74
2021/11/25 05:26:33;;;;;;;18.73;11.37;;;;;;;1.08;88.40;101419.78;5089694;28;20032;-73
2021/11/25 05:29:00;;;;;;;14.73;9.27;;;;;;;0.98;88.60;101428.22;5053839;28;20494;-76
2021/11/25 05:31:26;;;;;;;24.07;13.03;;;;;;;0.80;89.00;101422.38;5088615;28;20046;-76
2021/11/25 05:33:52;;;;;;;22.43;12.63;;;;;;;0.11;90.04;101313.66;5080899;28;20024;-75
2021/11/25 05:36:17;;;;;;;22.97;12.07;;;;;;;0.93;89.98;101443.03;5052208;28;20467;-75
2021/11/25 05:38:43;;;;;;;18.10;12.73;;;;;;;0.77;89.57;101387.41;5069545;28;20028;-75
2021/11/25 05:41:08;;;;;;;19.23;11.43;;;;;;;0.85;89.53;101402.41;5080744;28;20032;-75
2021/11/25 05:43:34;;;;;;;19.70;10.10;;;;;;;0.76;90.72;101428.81;5073519;28;20514;-73
2021/11/25 05:45:59;;;;;;;22.03;10.10;;;;;;;0.76;91.39;101411.00;5077727;28;20031;-72
2021/11/25 05:48:26;;;;;;;14.83;8.90;;;;;;;0.99;90.47;101427.47;5092850;28;20085;-76
2021/11/25 05:50:52;;;;;;;15.70;9.40;;;;;;;0.71;90.00;101407.16;5094484;28;20115;-71
2021/11/25 05:53:20;;;;;;;15.63;9.47;;;;;;;0.75;89.82;101395.63;5083273;28;20135;-73
2021/11/25 05:55:46;;;;;;;17.33;10.53;;;;;;;0.89;90.25;101419.75;5086296;28;20028;-76
2021/11/25 05:58:12;;;;;;;18.30;8.87;;;;;;;0.90;90.62;101414.81;5059960;28;20086;-75
2021/11/25 06:00:37;;;;;;;15.93;9.23;;;;;;;1.04;89.98;101425.34;5084380;28;20028;-73
2021/11/25 06:03:03;;;;;;;19.00;9.40;;;;;;;1.09;89.76;101417.34;5090275;28;20028;-74
2021/11/25 06:05:29;;;;;;;28.83;13.47;;;;;;;1.01;90.10;101377.66;5093001;28;20032;-76
2021/11/25 06:07:59;;;;;;;25.07;13.43;;;;;;;1.24;90.36;101412.75;5069570;28;20032;-77
2021/11/25 06:10:24;;;;;;;16.70;11.60;;;;;;;1.17;91.02;101417.16;5091198;28;20032;-76
2021/11/25 06:12:50;;;;;;;34.80;18.83;;;;;;;1.00;91.81;101415.63;5076234;28;20471;-75
2021/11/25 06:15:16;;;;;;;48.40;23.83;;;;;;;0.92;93.32;101417.47;5073463;28;20024;-75
2021/11/25 06:17:42;;;;;;;29.43;18.30;;;;;;;0.82;93.95;101408.13;5073384;28;20036;-75
2021/11/25 06:20:13;;;;;;;29.20;15.07;;;;;;;0.35;93.01;101301.41;5055125;28;20510;-75
2021/11/25 06:22:41;;;;;;;26.90;15.10;;;;;;;0.89;92.79;101362.16;5055282;28;20029;-74
2021/11/25 06:25:07;;;;;;;32.30;16.93;;;;;;;1.20;93.01;101397.97;5072526;28;20486;-75
2021/11/25 06:27:32;;;;;;;34.10;17.90;;;;;;;1.31;93.45;101401.50;5072945;28;20039;-75
2021/11/25 06:29:58;;;;;;;35.87;17.67;;;;;;;0.88;94.13;101384.91;5072965;28;20020;-74
2021/11/25 06:32:23;;;;;;;38.17;18.63;;;;;;;0.84;94.50;101377.78;5093617;28;20028;-75
2021/11/25 06:34:49;;;;;;;41.90;20.27;;;;;;;0.96;94.67;101407.75;5075684;28;20034;-73
2021/11/25 06:37:14;;;;;;;40.30;18.97;;;;;;;1.00;95.12;101403.81;5089287;28;20117;-74
2021/11/25 06:39:40;;;;;;;39.07;20.47;;;;;;;0.37;95.70;101339.66;5093393;28;20032;-74
2021/11/25 06:42:05;;;;;;;46.17;21.03;;;;;;;0.46;97.38;101387.13;5093996;28;20032;-72
2021/11/25 06:44:31;;;;;;;35.60;19.43;;;;;;;0.70;97.31;101407.00;5092023;28;20118;-76
2021/11/25 06:46:56;;;;;;;34.63;17.60;;;;;;;0.49;98.48;101404.28;5091663;28;20039;-75
2021/11/25 06:49:22;;;;;;;35.70;16.23;;;;;;;0.44;100.00;101418.22;5093702;28;20195;-74
2021/11/25 06:51:47;;;;;;;35.77;15.80;;;;;;;0.50;100.00;101395.00;5075312;28;20039;-74
2021/11/25 06:54:13;;;;;;;35.13;16.93;;;;;;;0.06;100.00;101312.31;5092486;28;20052;-74
2021/11/25 06:56:38;;;;;;;45.17;24.83;;;;;;;0.59;100.00;101396.75;5093229;28;20462;-74
2021/11/25 06:59:06;;;;;;;40.00;20.13;;;;;;;0.47;100.00;101406.69;5093448;28;20057;-74
2021/11/25 07:01:31;;;;;;;50.97;21.50;;;;;;;0.70;100.00;101392.66;5089042;28;20100;-73
2021/11/25 07:03:57;;;;;;;41.27;18.67;;;;;;;0.94;100.00;101405.81;5075792;28;20127;-75
2021/11/25 07:06:22;;;;;;;37.73;18.47;;;;;;;1.34;100.00;101405.97;5093226;28;20039;-74
2021/11/25 07:08:48;;;;;;;36.97;18.87;;;;;;;1.34;99.90;101389.03;5092410;28;20486;-74
2021/11/25 07:11:14;;;;;;;44.60;22.37;;;;;;;1.05;100.00;101345.75;5092459;28;20060;-75
2021/11/25 07:13:39;;;;;;;40.90;20.47;;;;;;;1.28;100.00;101380.84;5073245;28;20391;-74
2021/11/25 07:16:05;;;;;;;43.73;21.27;;;;;;;1.24;100.00;101346.63;5089665;28;20527;-75
2021/11/25 07:18:32;;;;;;;35.53;19.47;;;;;;;1.52;100.00;101404.13;5071673;28;20031;-74
2021/11/25 07:20:59;;;;;;;41.83;20.17;;;;;;;1.18;100.00;101295.22;5071966;28;20074;-75
2021/11/25 07:23:25;;;;;;;32.60;17.03;;;;;;;2.13;99.86;101405.16;5087500;28;20059;-72
2021/11/25 07:25:50;;;;;;;31.97;15.80;;;;;;;2.16;98.05;101362.13;5072569;28;20032;-74
2021/11/25 07:28:15;;;;;;;33.17;17.07;;;;;;;2.60;97.29;101395.53;5076622;28;20073;-70
2021/11/25 07:30:41;;;;;;;32.93;18.00;;;;;;;2.73;96.97;101389.84;5084730;28;20033;-72
2021/11/25 07:33:07;;;;;;;33.77;17.80;;;;;;;2.42;96.60;101315.91;5086431;28;20039;-74
2021/11/25 07:35:32;;;;;;;30.73;17.43;;;;;;;2.67;97.58;101379.13;5092928;28;20024;-74
2021/11/25 07:37:59;;;;;;;27.00;15.87;;;;;;;2.06;97.08;101236.50;5092383;28;20073;-71
2021/11/25 07:40:25;;;;;;;36.90;22.15;;;;;;;3.03;98.33;101386.38;5092632;28;20474;-73
2021/11/25 07:42:52;;;;;;;36.63;24.83;;;;;;;3.06;98.51;101393.38;5092475;28;20107;-71
2021/11/25 07:45:18;;;;;;;27.43;14.27;;;;;;;3.21;97.90;101388.63;5092512;28;20032;-73
2021/11/25 07:47:44;;;;;;;21.83;13.23;;;;;;;3.21;97.69;101384.41;5092455;28;20024;-76
2021/11/25 07:50:12;;;;;;;22.30;12.30;;;;;;;3.00;97.20;101308.69;5092381;28;20055;-72
2021/11/25 07:52:38;;;;;;;22.02;12.43;;;;;;;3.55;97.38;101387.16;5092444;28;20474;-73
2021/11/25 07:55:06;;;;;;;17.38;10.77;;;;;;;3.53;97.49;101388.66;5092482;28;20040;-73
2021/11/25 07:57:31;;;;;;;19.67;11.52;;;;;;;3.64;96.42;101376.75;5092131;28;20031;-73
2021/11/25 07:59:57;;;;;;;19.05;10.90;;;;;;;3.75;95.83;101369.06;5080971;28;20025;-73
2021/11/25 08:02:23;;;;;;;18.30;10.65;;;;;;;3.79;96.93;101382.19;5070212;28;20032;-73
2021/11/25 08:04:49;;;;;;;15.07;9.30;;;;;;;3.56;96.25;101342.97;5070399;28;20029;-71
2021/11/25 08:07:15;;;;;;;17.13;10.30;;;;;;;3.59;96.44;101321.91;5074701;28;20063;-74
2021/11/25 08:09:40;;;;;;;16.85;9.02;;;;;;;4.04;95.09;101386.69;5073968;28;20096;-72
2021/11/25 08:12:07;;;;;;;16.23;8.25;;;;;;;3.71;95.81;101360.25;5076753;28;20065;-72
2021/11/25 08:14:32;;;;;;;14.32;8.02;;;;;;;3.94;96.33;101382.50;5076940;28;20025;-72
2021/11/25 08:16:59;;;;;;;12.00;8.43;;;;;;;3.86;95.24;101342.69;5073034;28;20035;-72
2021/11/25 08:19:28;;;;;;;10.77;8.20;;;;;;;4.09;95.49;101362.38;5071037;28;20093;-71
2021/11/25 08:21:54;;;;;;;12.23;8.07;;;;;;;4.28;94.55;101369.78;5070778;28;20028;-72
2021/11/25 08:24:20;;;;;;;17.13;8.05;;;;;;;4.36;96.12;101378.03;5051987;28;20291;-70
2021/11/25 08:26:45;;;;;;;15.52;8.38;;;;;;;4.18;94.21;101326.41;5071144;28;20021;-72
2021/11/25 08:29:11;;;;;;;16.05;9.00;;;;;;;4.26;95.01;101297.22;5070809;28;20021;-73
2021/11/25 08:31:37;;;;;;;20.40;9.73;;;;;;;4.23;94.66;101267.97;5070981;28;20158;-72
2021/11/25 08:34:03;;;;;;;13.90;9.05;;;;;;;4.72;95.06;101350.91;5070795;28;20407;-73
2021/11/25 08:36:28;;;;;;;15.45;9.13;;;;;;;4.77;94.12;101318.91;5071115;28;20031;-73
2021/11/25 08:38:54;;;;;;;14.55;9.10;;;;;;;4.78;92.88;101292.53;5070919;28;20029;-73
2021/11/25 08:41:20;;;;;;;14.25;8.30;;;;;;;5.05;92.30;101320.00;5071202;28;20109;-72
2021/11/25 08:43:45;;;;;;;15.23;8.27;;;;;;;5.19;92.49;101334.72;5070577;28;20469;-73
2021/11/25 08:46:11;;;;;;;15.15;8.15;;;;;;;5.11;92.25;101313.69;5051910;28;20102;-73
2021/11/25 08:48:37;;;;;;;16.10;8.40;;;;;;;5.50;92.94;101344.63;5070458;28;20494;-72
2021/11/25 08:51:03;;;;;;;13.82;7.95;;;;;;;5.69;92.16;101336.56;5070842;28;20021;-73
2021/11/25 08:53:30;;;;;;;19.88;10.23;;;;;;;5.24;91.40;101225.84;5070671;28;20035;-77
2021/11/25 08:55:56;;;;;;;20.65;9.02;;;;;;;6.01;90.75;101321.66;5083541;28;20050;-78
2021/11/25 08:58:22;;;;;;;16.25;9.18;;;;;;;5.81;90.49;101291.28;5091464;28;20028;-78
2021/11/25 09:00:47;;;;;;;21.98;9.88;;;;;;;5.94;91.11;101292.13;5091585;28;20042;-78
2021/11/25 09:03:13;;;;;;;11.95;7.50;;;;;;;5.77;90.26;101225.25;5090902;28;20020;-77
2021/11/25 09:05:38;;;;;;;20.73;9.52;;;;;;;6.15;89.12;101264.56;5073872;28;20121;-76
2021/11/25 09:08:04;;;;;;;19.92;9.10;;;;;;;6.64;88.80;101307.97;5080466;28;20465;-75
2021/11/25 09:10:30;;;;;;;21.33;9.38;;;;;;;6.75;90.74;101299.34;5091375;28;20036;-77
2021/11/25 09:12:55;;;;;;;25.42;10.25;;;;;;;6.67;89.64;101297.03;5091729;28;20371;-77
2021/11/25 09:15:22;;;;;;;20.45;9.10;;;;;;;6.72;89.11;101303.38;5091768;28;20497;-77
2021/11/25 09:17:48;;;;;;;16.40;7.00;;;;;;;6.38;86.72;101214.81;5095036;28;20466;-77
2021/11/25 09:20:13;;;;;;;19.02;8.35;;;;;;;6.73;87.39;101256.38;5095513;28;20085;-76
2021/11/25 09:22:39;;;;;;;14.32;7.70;;;;;;;7.12;85.53;101275.16;5095428;28;20036;-74
2021/11/25 09:25:06;;;;;;;12.02;5.57;;;;;;;7.13;83.47;101241.84;5095406;28;20123;-69
2021/11/25 09:27:32;;;;;;;12.57;5.72;;;;;;;6.99;83.83;101175.03;5079397;28;20111;-75
2021/11/25 09:29:59;;;;;;;16.52;7.35;;;;;;;7.35;85.21;101232.03;5074723;28;20074;-76
2021/11/25 09:32:24;;;;;;;14.38;6.82;;;;;;;7.60;84.90;101255.91;5074245;28;20097;-75
2021/11/25 09:34:51;;;;;;;19.15;7.18;;;;;;;7.22;85.01;101150.78;5075013;28;20115;-75
2021/11/25 09:37:17;;;;;;;21.15;8.30;;;;;;;7.82;82.46;101230.63;5074643;28;20075;-72
2021/11/25 09:39:42;;;;;;;14.35;5.60;;;;;;;7.48;82.45;101174.59;5074783;28;20064;-73
2021/11/25 09:42:08;;;;;;;11.88;5.53;;;;;;;8.00;79.35;101249.72;5075063;28;20043;-73
2021/11/25 09:44:34;;;;;;;14.73;5.93;;;;;;;7.75;79.42;101162.50;5090228;28;20053;-74
2021/11/25 09:46:59;;;;;;;20.63;8.95;;;;;;;8.31;79.57;101238.69;5074250;28;20024;-74
2021/11/25 09:49:28;;;;;;;14.20;5.82;;;;;;;8.42;78.71;101231.56;5055626;28;20413;-74
2021/11/25 09:51:55;;;;;;;11.48;5.85;;;;;;;7.97;78.63;101217.78;5074746;28;20060;-74
2021/11/25 09:54:21;;;;;;;11.55;5.93;;;;;;;8.27;79.37;101226.41;5074249;28;20032;-74
2021/11/25 09:56:47;;;;;;;18.33;6.28;;;;;;;8.31;77.82;101192.38;5074478;28;20406;-74
2021/11/25 09:59:13;;;;;;;13.80;6.00;;;;;;;8.58;77.23;101212.78;5074268;28;20047;-74
2021/11/25 10:01:39;;;;;;;18.05;5.82;;;;;;;8.71;75.88;101209.22;5056132;28;20032;-74
2021/11/25 10:04:04;;;;;;;12.77;4.95;;;;;;;8.65;72.72;101189.16;5074039;28;20028;-73
2021/11/25 10:06:33;;;;;;;15.82;4.43;;;;;;;8.88;70.70;101202.44;5074272;28;20074;-74
2021/11/25 10:08:59;;;;;;;14.70;5.90;;;;;;;8.33;77.24;101134.16;5091090;28;20559;-74
2021/11/25 10:11:37;;;;;;;17.60;6.13;;;;;;;8.71;74.67;101192.09;5094349;28;20028;-75
2021/11/25 10:14:07;;;;;;;13.13;5.18;;;;;;;8.83;75.31;101199.59;5093896;28;20386;-73
2021/11/25 10:16:38;;;;;;;11.25;4.97;;;;;;;8.90;72.69;101195.69;5094117;28;20024;-76
2021/11/25 10:19:27;;;;;;;9.20;4.25;;;;;;;8.90;72.50;101188.84;5094549;28;20016;-75
2021/11/25 10:21:56;;;;;;;13.82;4.70;;;;;;;9.04;70.98;101186.16;5094396;28;20106;-72
2021/11/25 10:24:31;;;;;;;;;;;;;;;9.06;70.89;101176.81;5094474;28;20020;-76
2021/11/25 10:26:56;;;;;;;11.57;4.22;;;;;;;8.99;69.01;101174.72;5093875;28;20080;-76
2021/11/25 10:29:22;;;;;;;11.38;4.05;;;;;;;8.92;69.26;101133.97;5093824;28;20146;-75
2021/11/25 10:31:55;;;;;;;9.43;3.70;;;;;;;9.28;68.56;101165.09;5094093;28;20027;-76
2021/11/25 10:34:22;;;;;;;11.52;3.92;;;;;;;9.37;68.64;101160.41;5094068;28;20032;-77
2021/11/25 10:37:05;;;;;;;8.25;4.03;;;;;;;9.50;68.64;101149.06;5093981;28;20102;-76
2021/11/25 10:42:31;;;;;;;14.38;4.72;;;;;;;9.65;66.56;101148.97;5093772;28;20152;-76
2021/11/25 10:44:57;;;;;;;16.08;4.25;;;;;;;9.44;67.23;101133.28;5093383;28;20048;-76
2021/11/25 10:47:25;;;;;;;15.38;4.60;;;;;;;9.62;67.58;101141.97;5093463;28;20036;-76
2021/11/25 10:49:53;;;;;;;9.00;3.72;;;;;;;9.61;68.06;101136.72;5093744;28;20039;-78
2021/11/25 10:52:22;;;;;;;14.38;4.53;;;;;;;9.31;68.03;101129.16;5093495;28;20474;-77
2021/11/25 10:54:55;;;;;;;9.68;4.22;;;;;;;9.34;69.34;101117.31;5093978;28;20405;-77
2021/11/25 10:57:23;;;;;;;6.63;4.07;;;;;;;9.69;69.30;101131.19;5093402;28;20028;-71
2021/11/25 10:59:52;;;;;;;10.57;4.78;;;;;;;9.67;66.67;101109.56;5093216;28;20032;-74
2021/11/25 11:02:21;;;;;;;12.73;4.13;;;;;;;9.70;66.06;101104.56;5093483;28;20028;-75
2021/11/25 11:04:48;;;;;;;9.68;3.67;;;;;;;9.91;64.38;101109.03;5074168;28;20043;-73
2021/11/25 11:07:24;;;;;;;10.32;3.28;;;;;;;9.73;64.57;101116.72;5092742;28;20494;-73
2021/11/25 11:09:50;;;;;;;10.60;4.18;;;;;;;9.48;64.60;101027.88;5093299;28;20037;-73
2021/11/25 11:15:11;;;;;;;8.82;3.08;;;;;;;9.88;61.27;101101.13;5042685;28;20040;-72
2021/11/25 11:20:24;;;;;;;8.45;3.10;;;;;;;9.81;61.63;101089.66;5093064;28;20035;-72
2021/11/25 11:22:58;;;;;;;6.45;2.50;;;;;;;9.85;61.44;101088.97;5092541;28;20024;-71
2021/11/25 11:25:25;;;;;;;7.38;2.70;;;;;;;9.84;61.40;101088.91;5092998;28;20035;-74
2021/11/25 11:27:53;;;;;;;6.22;2.72;;;;;;;9.87;61.55;101074.47;5093135;28;20489;-73
2021/11/25 11:30:19;;;;;;;7.55;2.60;;;;;;;9.65;61.17;100999.44;5092711;28;20020;-73
2021/11/25 11:32:46;;;;;;;6.30;3.00;;;;;;;10.05;61.37;101076.19;5090368;28;20035;-70
2021/11/25 11:35:13;;;;;;;6.32;3.10;;;;;;;10.14;62.77;101068.91;5072268;28;20417;-71